createdAt,value
2022-11-29T00:01:24.813Z,6.80
2022-11-29T00:03:51.640Z,6.80
2022-11-29T00:06:23.231Z,7.10
2022-11-29T00:08:50.474Z,6.80
2022-11-29T00:11:40.733Z,6.80
2022-11-29T00:14:08.243Z,6.80
2022-11-29T00:16:34.998Z,6.90
2022-11-29T00:19:02.066Z,6.80
2022-11-29T00:21:28.999Z,6.80
2022-11-29T00:23:55.626Z,6.80
2022-11-29T00:26:23.150Z,6.90
2022-11-29T00:28:49.729Z,6.80
2022-11-29T00:31:17.627Z,6.80
2022-11-29T00:33:44.240Z,6.80
2022-11-29T00:36:11.253Z,6.80
2022-11-29T00:38:38.210Z,6.90
2022-11-29T00:41:05.147Z,6.90
2022-11-29T00:43:31.750Z,6.90
2022-11-29T00:45:58.496Z,6.80
2022-11-29T00:48:25.230Z,6.90
2022-11-29T00:50:51.970Z,6.90
2022-11-29T00:53:18.619Z,6.90
2022-11-29T00:55:47.326Z,6.90
2022-11-29T00:58:14.089Z,8.50
2022-11-29T01:00:40.681Z,6.80
2022-11-29T01:03:07.580Z,6.80
2022-11-29T01:05:34.245Z,6.80
2022-11-29T01:08:00.893Z,6.90
2022-11-29T01:10:27.917Z,6.80
2022-11-29T01:12:55.245Z,6.80
2022-11-29T01:15:22.180Z,9.00
2022-11-29T01:17:49.452Z,6.80
2022-11-29T01:20:16.390Z,6.80
2022-11-29T01:22:43.369Z,6.80
2022-11-29T01:25:11.381Z,6.80
2022-11-29T01:27:37.969Z,6.80
2022-11-29T01:30:05.524Z,6.80
2022-11-29T01:32:32.174Z,6.80
2022-11-29T01:34:58.750Z,6.80
2022-11-29T01:37:25.457Z,7.10
2022-11-29T01:39:52.025Z,6.90
2022-11-29T01:42:18.689Z,6.90
2022-11-29T01:44:46.146Z,6.80
2022-11-29T01:47:13.159Z,6.90
2022-11-29T01:49:44.005Z,6.80
2022-11-29T01:52:13.209Z,6.80
2022-11-29T01:54:42.253Z,6.90
2022-11-29T01:57:09.668Z,6.90
2022-11-29T01:59:37.392Z,7.40
2022-11-29T02:02:06.448Z,6.90
2022-11-29T02:04:36.917Z,6.90
2022-11-29T02:07:04.013Z,6.90
2022-11-29T02:09:30.822Z,6.90
2022-11-29T02:12:17.105Z,6.90
2022-11-29T02:14:57.221Z,6.90
2022-11-29T02:17:39.077Z,6.90
2022-11-29T02:20:24.696Z,6.90
2022-11-29T02:23:03.565Z,6.90
2022-11-29T02:25:39.892Z,6.90
2022-11-29T02:28:25.318Z,6.90
2022-11-29T02:30:51.911Z,6.90
2022-11-29T02:33:27.972Z,6.90
2022-11-29T02:36:01.334Z,6.90
2022-11-29T02:38:42.920Z,6.80
2022-11-29T02:41:26.532Z,6.90
2022-11-29T02:43:53.240Z,6.90
2022-11-29T02:46:25.714Z,6.90
2022-11-29T02:48:55.354Z,6.90
2022-11-29T02:51:25.670Z,6.90
2022-11-29T02:53:58.247Z,6.90
2022-11-29T02:56:43.611Z,6.90
2022-11-29T02:59:10.217Z,6.90
2022-11-29T03:01:52.125Z,6.90
2022-11-29T03:04:26.018Z,6.90
2022-11-29T03:07:13.651Z,6.90
2022-11-29T03:09:58.170Z,6.90
2022-11-29T03:12:39.099Z,6.80
2022-11-29T03:15:14.762Z,6.90
2022-11-29T03:17:53.935Z,6.90
2022-11-29T03:20:26.445Z,6.90
2022-11-29T03:23:05.552Z,6.90
2022-11-29T03:25:35.493Z,6.90
2022-11-29T03:28:07.930Z,6.90
2022-11-29T03:30:38.111Z,6.90
2022-11-29T03:33:20.641Z,6.90
2022-11-29T03:35:50.447Z,6.90
2022-11-29T03:38:39.779Z,6.90
2022-11-29T03:41:38.849Z,6.90
2022-11-29T03:44:11.555Z,6.90
2022-11-29T03:46:42.756Z,6.90
2022-11-29T03:49:15.609Z,6.90
2022-11-29T03:51:42.161Z,6.90
2022-11-29T03:54:14.890Z,7.00
2022-11-29T03:56:41.682Z,7.00
2022-11-29T03:59:17.599Z,6.90
2022-11-29T04:01:47.284Z,7.00
2022-11-29T04:04:23.384Z,7.00
2022-11-29T04:07:14.672Z,7.00
2022-11-29T04:09:59.916Z,7.00
2022-11-29T04:12:35.739Z,7.00
2022-11-29T04:15:02.317Z,6.90
2022-11-29T04:17:35.102Z,6.90
2022-11-29T04:20:10.902Z,6.90
2022-11-29T04:22:52.702Z,6.90
2022-11-29T04:25:22.118Z,6.90
2022-11-29T04:27:51.694Z,6.90
2022-11-29T04:30:19.961Z,7.00
2022-11-29T04:33:10.173Z,7.00
2022-11-29T04:35:55.304Z,6.80
2022-11-29T04:38:21.949Z,7.00
2022-11-29T04:40:57.547Z,7.00
2022-11-29T04:43:44.402Z,7.00
2022-11-29T04:46:11.081Z,5.70
2022-11-29T04:48:40.673Z,7.00
2022-11-29T04:51:26.008Z,7.00
2022-11-29T04:53:58.121Z,7.10
2022-11-29T04:56:42.786Z,7.00
2022-11-29T04:59:32.457Z,7.00
2022-11-29T05:02:14.431Z,7.00
2022-11-29T05:05:07.381Z,7.00
2022-11-29T05:07:36.772Z,7.00
2022-11-29T05:10:18.259Z,7.00
2022-11-29T05:13:03.654Z,6.90
2022-11-29T05:15:30.252Z,7.00
2022-11-29T05:18:12.318Z,6.90
2022-11-29T05:20:45.170Z,7.00
2022-11-29T05:23:30.660Z,6.90
2022-11-29T05:26:01.526Z,6.90
2022-11-29T05:28:32.981Z,6.90
2022-11-29T05:31:18.681Z,6.90
2022-11-29T05:34:04.211Z,6.80
2022-11-29T05:36:38.218Z,6.90
2022-11-29T05:39:15.752Z,6.90
2022-11-29T05:41:57.436Z,6.90
2022-11-29T05:44:30.639Z,6.90
2022-11-29T05:46:59.469Z,7.00
2022-11-29T05:49:26.014Z,6.90
2022-11-29T05:52:10.857Z,7.00
2022-11-29T05:54:41.313Z,7.00
2022-11-29T05:57:23.048Z,7.00
2022-11-29T05:59:51.041Z,7.00
2022-11-29T06:02:26.527Z,7.00
2022-11-29T06:04:59.319Z,7.00
2022-11-29T06:07:41.006Z,7.00
2022-11-29T06:10:17.728Z,7.00
2022-11-29T06:12:52.927Z,7.00
2022-11-29T06:15:34.574Z,7.10
2022-11-29T06:18:27.672Z,7.00
2022-11-29T06:21:02.365Z,7.00
2022-11-29T06:23:29.135Z,7.00
2022-11-29T06:26:04.802Z,7.00
2022-11-29T06:28:34.469Z,7.00
2022-11-29T06:31:19.880Z,7.00
2022-11-29T06:33:49.619Z,7.00
2022-11-29T06:36:28.589Z,7.00
2022-11-29T06:38:55.270Z,7.00
2022-11-29T06:41:23.254Z,7.00
2022-11-29T06:43:50.365Z,7.00
2022-11-29T06:46:24.706Z,7.00
2022-11-29T06:49:08.833Z,7.00
2022-11-29T06:51:35.404Z,7.00
2022-11-29T06:54:08.513Z,7.00
2022-11-29T06:56:42.887Z,7.00
2022-11-29T06:59:28.456Z,7.00
2022-11-29T07:01:55.116Z,7.00
2022-11-29T07:04:34.640Z,7.00
2022-11-29T07:07:01.265Z,7.00
2022-11-29T07:09:33.619Z,7.00
2022-11-29T07:12:00.441Z,7.00
2022-11-29T07:14:27.141Z,7.00
2022-11-29T07:17:02.658Z,7.00
2022-11-29T07:19:29.219Z,7.00
2022-11-29T07:21:55.790Z,7.10
2022-11-29T07:24:34.387Z,7.10
2022-11-29T07:27:08.305Z,7.10
2022-11-29T07:29:37.888Z,7.10
2022-11-29T07:32:20.683Z,7.10
2022-11-29T07:35:01.897Z,7.10
2022-11-29T07:37:47.406Z,7.20
2022-11-29T07:40:16.470Z,7.10
2022-11-29T07:42:50.602Z,7.20
2022-11-29T07:45:43.855Z,7.10
2022-11-29T07:48:10.996Z,7.10
2022-11-29T07:50:37.630Z,8.60
2022-11-29T07:53:04.322Z,7.20
2022-11-29T07:55:31.887Z,7.20
2022-11-29T07:57:58.460Z,7.30
2022-11-29T08:00:25.027Z,7.20
2022-11-29T08:02:51.846Z,7.20
2022-11-29T08:05:18.813Z,7.20
2022-11-29T08:07:46.438Z,7.20
2022-11-29T08:10:15.142Z,7.20
2022-11-29T08:12:43.859Z,7.20
2022-11-29T08:15:10.567Z,7.20
2022-11-29T08:17:38.202Z,7.20
2022-11-29T08:20:05.229Z,7.20
2022-11-29T08:22:31.912Z,7.20
2022-11-29T08:24:59.862Z,7.30
2022-11-29T08:27:26.414Z,7.30
2022-11-29T08:29:53.202Z,7.40
2022-11-29T08:32:19.757Z,7.40
2022-11-29T08:34:46.743Z,7.40
2022-11-29T08:37:13.713Z,7.30
2022-11-29T08:39:40.275Z,7.40
2022-11-29T08:42:06.871Z,7.50
2022-11-29T08:44:33.438Z,7.50
2022-11-29T08:47:18.697Z,7.50
2022-11-29T08:50:03.330Z,7.50
2022-11-29T08:52:56.813Z,7.50
2022-11-29T08:55:24.764Z,7.50
2022-11-29T08:57:51.839Z,7.60
2022-11-29T09:00:19.272Z,7.40
2022-11-29T09:02:45.913Z,7.40
2022-11-29T09:05:12.547Z,7.50
2022-11-29T09:07:39.384Z,7.60
2022-11-29T09:10:08.223Z,7.50
2022-11-29T09:12:36.052Z,7.60
2022-11-29T09:15:04.285Z,7.60
2022-11-29T09:17:30.885Z,7.60
2022-11-29T09:19:57.564Z,7.50
2022-11-29T09:22:24.137Z,7.60
2022-11-29T09:24:50.813Z,7.60
2022-11-29T09:27:17.369Z,7.60
2022-11-29T09:29:43.944Z,7.70
2022-11-29T09:32:10.792Z,7.70
2022-11-29T09:34:37.395Z,7.70
2022-11-29T09:37:05.078Z,7.60
2022-11-29T09:39:31.665Z,7.50
2022-11-29T09:42:01.347Z,7.60
2022-11-29T09:44:28.017Z,7.60
2022-11-29T09:47:00.883Z,7.60
2022-11-29T09:49:38.208Z,7.70
2022-11-29T09:52:09.250Z,7.80
2022-11-29T09:54:35.985Z,7.70
2022-11-29T09:57:10.154Z,7.80
2022-11-29T09:59:40.987Z,7.80
2022-11-29T10:02:21.728Z,7.80
2022-11-29T10:04:51.239Z,7.90
2022-11-29T10:07:21.614Z,7.90
2022-11-29T10:09:48.271Z,7.90
2022-11-29T10:12:18.298Z,7.90
2022-11-29T10:14:52.938Z,7.90
2022-11-29T10:17:19.487Z,7.90
2022-11-29T10:19:47.956Z,7.90
2022-11-29T10:22:17.288Z,7.80
2022-11-29T10:24:47.207Z,7.90
2022-11-29T10:27:17.515Z,8.00
2022-11-29T10:29:44.178Z,8.10
2022-11-29T10:32:13.777Z,8.10
2022-11-29T10:34:41.114Z,8.10
2022-11-29T10:37:10.713Z,8.10
2022-11-29T10:39:40.342Z,8.20
2022-11-29T10:42:32.763Z,8.10
2022-11-29T10:45:00.010Z,8.30
2022-11-29T10:47:26.641Z,8.20
2022-11-29T10:49:53.295Z,8.30
2022-11-29T10:52:20.644Z,8.30
2022-11-29T10:54:48.498Z,8.40
2022-11-29T10:57:19.050Z,8.70
2022-11-29T11:00:18.551Z,8.50
2022-11-29T11:02:45.246Z,8.50
2022-11-29T11:05:12.993Z,8.40
2022-11-29T11:07:39.708Z,8.50
2022-11-29T11:10:20.118Z,8.60
2022-11-29T11:13:01.341Z,8.40
2022-11-29T11:15:29.214Z,8.50
2022-11-29T11:18:05.891Z,8.60
2022-11-29T11:20:33.299Z,8.50
2022-11-29T11:23:07.573Z,8.60
2022-11-29T11:25:35.455Z,8.60
2022-11-29T11:28:31.317Z,8.60
2022-11-29T11:31:02.679Z,8.70
2022-11-29T11:33:31.143Z,8.60
2022-11-29T11:36:03.891Z,8.60
2022-11-29T11:38:30.874Z,8.60
2022-11-29T11:41:05.528Z,8.60
2022-11-29T11:43:33.015Z,8.60
2022-11-29T11:45:59.745Z,8.50
2022-11-29T11:48:26.687Z,8.60
2022-11-29T11:50:54.803Z,8.60
2022-11-29T11:53:24.399Z,8.70
2022-11-29T11:55:57.190Z,8.70
2022-11-29T11:58:24.584Z,8.70
2022-11-29T12:01:04.028Z,8.80
2022-11-29T12:03:37.308Z,8.80
2022-11-29T12:06:24.247Z,8.90
2022-11-29T12:08:51.665Z,8.90
2022-11-29T12:11:18.697Z,9.90
2022-11-29T12:13:48.190Z,8.90
2022-11-29T12:16:18.399Z,8.90
2022-11-29T12:18:48.402Z,8.90
2022-11-29T12:21:16.704Z,8.90
2022-11-29T12:23:52.671Z,9.70
2022-11-29T12:26:55.203Z,8.70
2022-11-29T12:29:14.423Z,8.60
2022-11-29T12:31:44.063Z,8.60
2022-11-29T12:34:29.519Z,8.70
2022-11-29T12:37:22.646Z,8.70
2022-11-29T12:39:59.955Z,8.80
2022-11-29T12:42:26.691Z,8.80
2022-11-29T12:45:03.684Z,8.80
2022-11-29T12:47:51.814Z,8.90
2022-11-29T12:50:18.751Z,8.80
2022-11-29T12:52:51.556Z,8.90
2022-11-29T12:55:18.206Z,9.00
2022-11-29T12:57:47.590Z,9.00
2022-11-29T13:00:19.240Z,8.90
2022-11-29T13:03:04.579Z,8.90
2022-11-29T13:05:31.235Z,8.90
2022-11-29T13:07:57.865Z,8.90
2022-11-29T13:10:54.015Z,8.80
2022-11-29T13:13:35.861Z,8.80
2022-11-29T13:16:05.791Z,8.60
2022-11-29T13:18:32.420Z,8.60
2022-11-29T13:21:16.233Z,8.50
2022-11-29T13:26:38.229Z,8.50
2022-11-29T13:29:06.227Z,8.50
2022-11-29T13:31:33.239Z,8.50
2022-11-29T13:34:09.148Z,8.50
2022-11-29T13:36:41.910Z,8.40
2022-11-29T13:39:28.549Z,8.30
2022-11-29T13:42:04.940Z,8.20
2022-11-29T13:44:39.298Z,8.30
2022-11-29T13:47:06.497Z,8.30
2022-11-29T13:49:52.819Z,8.40
2022-11-29T13:52:27.568Z,8.40
2022-11-29T13:55:04.677Z,8.40
2022-11-29T13:58:14.327Z,8.40
2022-11-29T14:00:33.721Z,8.30
2022-11-29T14:03:29.430Z,8.30
2022-11-29T14:06:02.099Z,8.30
2022-11-29T14:11:44.715Z,8.30
2022-11-29T14:14:31.242Z,8.20
2022-11-29T14:16:59.509Z,8.20
2022-11-29T14:19:34.045Z,8.10
2022-11-29T14:22:06.915Z,8.10
2022-11-29T14:24:36.571Z,8.00
2022-11-29T14:27:06.198Z,8.00
2022-11-29T14:29:49.533Z,7.60
2022-11-29T14:32:34.634Z,7.80
2022-11-29T14:35:13.398Z,7.80
2022-11-29T14:37:58.773Z,7.80
2022-11-29T14:40:32.112Z,7.80
2022-11-29T14:43:00.272Z,7.70
2022-11-29T14:45:29.041Z,7.70
2022-11-29T14:47:56.328Z,7.80
2022-11-29T14:50:41.866Z,7.70
2022-11-29T14:53:27.470Z,7.70
2022-11-29T14:56:13.998Z,7.70
2022-11-29T14:58:40.585Z,7.70
2022-11-29T15:01:10.712Z,7.70
2022-11-29T15:03:41.531Z,7.70
2022-11-29T15:06:11.134Z,7.70
2022-11-29T15:08:37.765Z,7.70
2022-11-29T15:11:06.794Z,7.70
2022-11-29T15:13:35.042Z,8.50
2022-11-29T15:16:09.465Z,7.50
2022-11-29T15:18:42.186Z,7.40
2022-11-29T15:21:08.769Z,7.40
2022-11-29T15:23:42.615Z,7.40
2022-11-29T15:26:18.984Z,7.30
2022-11-29T15:28:45.638Z,7.30
2022-11-29T15:31:14.126Z,7.20
2022-11-29T15:33:41.443Z,7.20
2022-11-29T15:36:09.287Z,7.20
2022-11-29T15:38:46.438Z,7.10
2022-11-29T15:41:26.156Z,7.10
2022-11-29T15:44:03.306Z,7.10
2022-11-29T15:46:31.228Z,7.10
2022-11-29T15:49:16.987Z,7.00
2022-11-29T15:51:45.320Z,7.00
2022-11-29T15:54:24.190Z,7.00
2022-11-29T15:56:52.619Z,7.00
2022-11-29T15:59:19.186Z,6.90
2022-11-29T16:01:49.141Z,6.90
2022-11-29T16:04:18.216Z,6.90
2022-11-29T16:06:45.610Z,6.80
2022-11-29T16:09:17.130Z,9.60
2022-11-29T16:11:44.273Z,6.80
2022-11-29T16:14:10.813Z,6.90
2022-11-29T16:16:41.946Z,6.80
2022-11-29T16:19:09.960Z,6.80
2022-11-29T16:21:36.555Z,6.80
2022-11-29T16:24:14.153Z,6.80
2022-11-29T16:26:42.853Z,6.80
2022-11-29T16:29:29.744Z,6.70
2022-11-29T16:31:56.603Z,6.60
2022-11-29T16:34:25.294Z,6.70
2022-11-29T16:37:01.005Z,6.70
2022-11-29T16:39:28.226Z,6.70
2022-11-29T16:42:25.742Z,6.70
2022-11-29T16:45:02.108Z,6.50
2022-11-29T16:47:30.202Z,6.60
2022-11-29T16:50:03.095Z,6.50
2022-11-29T16:52:33.427Z,6.50
2022-11-29T16:55:00.091Z,6.50
2022-11-29T16:57:28.089Z,6.50
2022-11-29T16:59:54.666Z,6.60
2022-11-29T17:02:21.499Z,6.50
2022-11-29T17:04:48.396Z,6.60
2022-11-29T17:07:16.953Z,6.60
2022-11-29T17:09:43.771Z,6.60
2022-11-29T17:12:12.787Z,6.50
2022-11-29T17:14:39.742Z,6.40
2022-11-29T17:17:06.503Z,6.50
2022-11-29T17:19:33.068Z,6.40
2022-11-29T17:21:59.688Z,6.50
2022-11-29T17:24:26.359Z,6.50
2022-11-29T17:26:52.959Z,6.60
2022-11-29T17:29:19.681Z,6.50
2022-11-29T17:31:46.836Z,6.60
2022-11-29T17:34:13.510Z,7.80
2022-11-29T17:36:40.494Z,6.50
2022-11-29T17:39:07.592Z,6.60
2022-11-29T17:41:34.473Z,6.60
2022-11-29T17:44:01.125Z,6.50
2022-11-29T17:46:28.881Z,6.50
2022-11-29T17:48:56.245Z,6.50
2022-11-29T17:51:50.485Z,6.40
2022-11-29T17:54:10.433Z,6.50
2022-11-29T17:56:37.155Z,6.40
2022-11-29T17:59:04.408Z,6.40
2022-11-29T18:01:32.693Z,6.50
2022-11-29T18:04:00.661Z,6.50
2022-11-29T18:06:28.534Z,6.40
2022-11-29T18:08:56.215Z,6.20
2022-11-29T18:11:42.932Z,6.20
2022-11-29T18:14:15.043Z,6.30
2022-11-29T18:16:41.780Z,6.80
2022-11-29T18:19:10.650Z,6.20
2022-11-29T18:21:37.975Z,6.30
2022-11-29T18:24:05.615Z,6.30
2022-11-29T18:26:32.854Z,6.30
2022-11-29T18:28:59.874Z,6.30
2022-11-29T18:31:31.140Z,6.30
2022-11-29T18:33:58.692Z,6.30
2022-11-29T18:36:27.044Z,6.30
2022-11-29T18:38:57.520Z,6.30
2022-11-29T18:41:24.777Z,6.30
2022-11-29T18:43:57.928Z,6.30
2022-11-29T18:46:32.036Z,6.30
2022-11-29T18:48:59.962Z,6.30
2022-11-29T18:51:27.115Z,6.30
2022-11-29T18:53:53.741Z,6.20
2022-11-29T18:56:22.494Z,6.20
2022-11-29T18:58:59.961Z,6.20
2022-11-29T19:01:28.005Z,6.30
2022-11-29T19:03:55.398Z,6.20
2022-11-29T19:06:26.678Z,6.20
2022-11-29T19:08:53.508Z,6.10
2022-11-29T19:11:21.347Z,6.10
2022-11-29T19:13:48.180Z,6.20
2022-11-29T19:16:16.105Z,6.20
2022-11-29T19:18:42.960Z,6.20
2022-11-29T19:21:14.254Z,6.10
2022-11-29T19:23:41.463Z,6.10
2022-11-29T19:26:09.287Z,6.00
2022-11-29T19:28:39.986Z,6.10
2022-11-29T19:31:07.429Z,6.10
2022-11-29T19:33:35.145Z,7.00
2022-11-29T19:36:05.863Z,6.10
2022-11-29T19:38:34.131Z,6.20
2022-11-29T19:41:00.765Z,6.10
2022-11-29T19:43:27.330Z,6.00
2022-11-29T19:45:54.020Z,7.00
2022-11-29T19:48:20.726Z,5.90
2022-11-29T19:50:47.337Z,5.90
2022-11-29T19:53:15.340Z,5.90
2022-11-29T19:55:44.048Z,5.90
2022-11-29T19:58:11.078Z,6.00
2022-11-29T20:00:37.636Z,6.00
2022-11-29T20:03:04.246Z,6.00
2022-11-29T20:05:30.847Z,6.00
2022-11-29T20:07:57.493Z,6.10
2022-11-29T20:10:24.797Z,6.10
2022-11-29T20:12:51.377Z,6.10
2022-11-29T20:15:17.946Z,6.00
2022-11-29T20:17:44.518Z,7.50
2022-11-29T20:20:11.856Z,6.10
2022-11-29T20:22:38.519Z,6.10
2022-11-29T20:25:05.443Z,6.10
2022-11-29T20:27:32.096Z,6.10
2022-11-29T20:29:58.684Z,6.10
2022-11-29T20:32:25.343Z,6.10
2022-11-29T20:34:52.316Z,4.20
2022-11-29T20:37:28.197Z,6.10
2022-11-29T20:39:59.952Z,6.10
2022-11-29T20:42:36.409Z,6.10
2022-11-29T20:45:04.853Z,6.10
2022-11-29T20:47:32.941Z,6.10
2022-11-29T20:49:59.690Z,6.10
2022-11-29T20:52:26.258Z,6.10
2022-11-29T20:54:52.889Z,6.10
2022-11-29T20:57:20.372Z,6.10
2022-11-29T20:59:47.241Z,6.00
2022-11-29T21:02:14.037Z,6.00
2022-11-29T21:04:40.658Z,6.00
2022-11-29T21:07:07.291Z,6.00
2022-11-29T21:09:33.929Z,5.70
2022-11-29T21:12:00.724Z,5.80
2022-11-29T21:14:27.431Z,5.80
2022-11-29T21:16:54.174Z,5.70
2022-11-29T21:19:23.679Z,5.70
2022-11-29T21:22:02.483Z,5.80
2022-11-29T21:24:39.087Z,5.70
2022-11-29T21:27:09.204Z,5.70
2022-11-29T21:29:36.014Z,5.70
2022-11-29T21:32:02.975Z,5.70
2022-11-29T21:34:29.795Z,5.70
2022-11-29T21:36:57.397Z,5.80
2022-11-29T21:39:26.323Z,5.80
2022-11-29T21:41:52.879Z,5.70
2022-11-29T21:44:19.451Z,5.70
2022-11-29T21:46:46.064Z,5.70
2022-11-29T21:49:12.688Z,5.60
2022-11-29T21:51:39.335Z,5.60
2022-11-29T21:54:05.922Z,5.60
2022-11-29T21:56:32.605Z,5.60
2022-11-29T21:58:59.188Z,5.50
2022-11-29T22:01:27.516Z,5.50
2022-11-29T22:03:54.334Z,5.40
2022-11-29T22:06:24.030Z,5.40
2022-11-29T22:08:50.655Z,5.40
2022-11-29T22:11:30.857Z,5.40
2022-11-29T22:14:19.389Z,5.30
2022-11-29T22:16:47.420Z,5.30
2022-11-29T22:19:33.079Z,5.20
2022-11-29T22:22:00.904Z,5.10
2022-11-29T22:24:32.482Z,5.00
2022-11-29T22:26:59.166Z,5.00
2022-11-29T22:29:25.770Z,5.00
2022-11-29T22:31:53.670Z,4.90
2022-11-29T22:34:21.018Z,4.90
2022-11-29T22:36:47.815Z,4.80
2022-11-29T22:39:14.682Z,4.70
2022-11-29T22:41:41.386Z,4.70
2022-11-29T22:44:08.466Z,4.70
2022-11-29T22:46:38.013Z,4.60
2022-11-29T22:49:08.330Z,4.60
2022-11-29T22:51:36.047Z,4.50
2022-11-29T22:54:07.114Z,4.50
2022-11-29T22:56:36.049Z,4.50
2022-11-29T22:59:02.889Z,4.50
2022-11-29T23:01:30.466Z,4.40
2022-11-29T23:03:58.289Z,4.40
2022-11-29T23:06:26.182Z,4.50
2022-11-29T23:08:54.425Z,4.50
2022-11-29T23:11:22.223Z,4.50
2022-11-29T23:13:48.823Z,4.60
2022-11-29T23:16:16.672Z,4.60
2022-11-29T23:18:45.529Z,4.50
2022-11-29T23:21:13.896Z,4.60
2022-11-29T23:23:40.809Z,4.60
2022-11-29T23:26:08.470Z,4.70
2022-11-29T23:28:35.420Z,4.80
2022-11-29T23:31:02.021Z,4.80
2022-11-29T23:33:28.770Z,4.80
2022-11-29T23:36:02.878Z,5.40
2022-11-29T23:38:29.593Z,4.60
2022-11-29T23:40:56.216Z,4.70
2022-11-29T23:43:23.139Z,4.70
2022-11-29T23:45:49.950Z,4.70
2022-11-29T23:48:16.825Z,4.70
2022-11-29T23:50:43.743Z,4.60
2022-11-29T23:53:14.653Z,4.50
2022-11-29T23:55:42.104Z,4.40
2022-11-29T23:58:09.400Z,4.40
